Crieff, United Kingdom
Current Conditions -  °F | °C
As of 8:50 AM on Thursday 23 Oct 2014 (Local Time) from EGPN Reporting Station
Broken Clouds Broken Clouds  
Wind Chill: 11°   Ceiling: 1300
Heat Index: 11°   Visibility: 6mi
Dew Point: 10°   Wind: 17mph
Humidity: 94%   Direction: 240°WSW
Pressure: 29.77"   Gusts: NA
Location:  56.37°N, 3.84°W
Report Text: EGPN 230750Z 24015KT 9999 BKN013 11/10 Q1008
Loading
Personal Weather Stations






























Interactive Weather Map
Tropical Storm Tracking
New forecast layout! Learn more

10-Day Weather Forecast

Advertisements
Track Severe Weather on mobile